createdAt,value
2018-04-29T00:00:22.778Z,5.63
2018-04-29T00:02:50.246Z,5.33
2018-04-29T00:05:17.762Z,5.70
2018-04-29T00:07:45.271Z,5.20
2018-04-29T00:10:12.784Z,5.33
2018-04-29T00:12:40.269Z,5.90
2018-04-29T00:15:07.798Z,5.83
2018-04-29T00:17:35.309Z,6.40
2018-04-29T00:20:02.815Z,5.90
2018-04-29T00:22:30.311Z,6.57
2018-04-29T00:24:57.804Z,6.00
2018-04-29T00:27:25.315Z,6.17
2018-04-29T00:29:52.801Z,6.10
2018-04-29T00:32:20.313Z,5.97
2018-04-29T00:34:47.831Z,6.00
2018-04-29T00:37:15.312Z,5.80
2018-04-29T00:39:42.784Z,5.77
2018-04-29T00:42:10.318Z,5.77
2018-04-29T00:44:37.784Z,5.27
2018-04-29T00:47:05.279Z,5.80
2018-04-29T00:49:32.776Z,6.27
2018-04-29T00:52:07.016Z,5.77
2018-04-29T00:54:34.530Z,6.13
2018-04-29T00:57:02.034Z,6.10
2018-04-29T00:59:29.561Z,6.10
2018-04-29T01:01:57.054Z,5.50
2018-04-29T01:04:24.541Z,5.77
2018-04-29T01:06:52.057Z,5.70
2018-04-29T01:09:19.556Z,6.13
2018-04-29T01:11:47.030Z,6.00
2018-04-29T01:14:14.519Z,5.83
2018-04-29T01:16:42.037Z,5.73
2018-04-29T01:19:09.520Z,5.63
2018-04-29T01:21:37.003Z,5.70
2018-04-29T01:24:04.496Z,4.93
2018-04-29T01:26:31.976Z,6.30
2018-04-29T01:28:59.468Z,5.57
2018-04-29T01:31:26.948Z,6.10
2018-04-29T01:33:54.452Z,5.80
2018-04-29T01:36:21.955Z,5.60
2018-04-29T01:38:49.451Z,6.17
2018-04-29T01:41:16.932Z,5.70
2018-04-29T01:43:44.428Z,5.30
2018-04-29T01:46:11.919Z,5.23
2018-04-29T01:48:39.435Z,5.67
2018-04-29T01:51:06.934Z,5.73
2018-04-29T01:53:34.427Z,5.70
2018-04-29T01:56:01.914Z,5.37
2018-04-29T01:58:29.470Z,5.43
2018-04-29T02:00:56.932Z,5.43
2018-04-29T02:03:24.399Z,4.87
2018-04-29T02:05:51.897Z,5.23
2018-04-29T02:08:19.446Z,5.93
2018-04-29T02:10:46.981Z,6.10
2018-04-29T02:13:14.490Z,5.73
2018-04-29T02:15:41.976Z,5.23
2018-04-29T02:18:09.464Z,5.50
2018-04-29T02:20:36.944Z,5.77
2018-04-29T02:23:04.442Z,5.07
2018-04-29T02:25:31.964Z,5.73
2018-04-29T02:27:59.458Z,5.43
2018-04-29T02:30:26.960Z,5.20
2018-04-29T02:32:54.453Z,5.47
2018-04-29T02:35:21.957Z,5.13
2018-04-29T02:37:49.436Z,5.30
2018-04-29T02:40:16.947Z,5.50
2018-04-29T02:42:44.461Z,5.20
2018-04-29T02:45:11.929Z,6.40
2018-04-29T02:47:39.397Z,6.00
2018-04-29T02:50:06.930Z,5.97
2018-04-29T02:52:34.451Z,5.57
2018-04-29T02:55:01.926Z,5.90
2018-04-29T02:57:29.418Z,5.40
2018-04-29T02:59:56.885Z,5.53
2018-04-29T03:02:24.348Z,5.00
2018-04-29T03:04:51.820Z,5.00
2018-04-29T03:07:19.313Z,5.13
2018-04-29T03:09:46.810Z,5.57
2018-04-29T03:12:14.285Z,4.90
2018-04-29T03:14:41.762Z,4.97
2018-04-29T03:17:09.298Z,5.00
2018-04-29T03:19:36.776Z,6.03
2018-04-29T03:22:04.251Z,5.33
2018-04-29T03:24:31.804Z,5.33
2018-04-29T03:26:59.303Z,4.77
2018-04-29T03:29:26.877Z,5.07
2018-04-29T03:31:54.364Z,4.67
2018-04-29T03:34:21.862Z,4.30
2018-04-29T03:36:49.336Z,4.50
2018-04-29T03:39:16.796Z,5.50
2018-04-29T03:41:44.286Z,4.90
2018-04-29T03:44:11.783Z,5.60
2018-04-29T03:46:39.260Z,4.63
2018-04-29T03:49:06.758Z,5.17
2018-04-29T03:51:34.238Z,5.03
2018-04-29T03:54:01.708Z,4.53
2018-04-29T03:56:29.224Z,4.83
2018-04-29T03:59:08.335Z,5.27
2018-04-29T04:01:51.279Z,5.17
2018-04-29T04:04:15.235Z,5.40
2018-04-29T04:06:42.709Z,4.80
2018-04-29T04:09:10.192Z,5.00
2018-04-29T04:11:37.707Z,4.40
2018-04-29T04:14:05.188Z,5.37
2018-04-29T04:16:32.677Z,5.83
2018-04-29T04:19:00.155Z,5.37
2018-04-29T04:21:27.661Z,5.90
2018-04-29T04:23:55.160Z,6.57
2018-04-29T04:26:22.672Z,5.90
2018-04-29T04:28:50.184Z,5.83
2018-04-29T04:31:17.664Z,6.20
2018-04-29T04:33:45.145Z,5.93
2018-04-29T04:36:12.630Z,5.90
2018-04-29T04:38:40.084Z,5.80
2018-04-29T04:41:07.575Z,5.40
2018-04-29T04:43:35.072Z,5.77
2018-04-29T04:46:02.540Z,6.43
2018-04-29T04:48:30.016Z,6.07
2018-04-29T04:50:57.558Z,6.90
2018-04-29T04:53:25.048Z,6.50
2018-04-29T04:55:52.618Z,6.70
2018-04-29T04:58:20.111Z,5.93
2018-04-29T05:00:47.581Z,7.13
2018-04-29T05:03:15.077Z,7.20
2018-04-29T05:05:42.552Z,7.43
2018-04-29T05:08:10.020Z,7.40
2018-04-29T05:10:37.516Z,6.33
2018-04-29T05:13:05.000Z,6.73
2018-04-29T05:15:32.485Z,7.27
2018-04-29T05:17:59.958Z,7.63
2018-04-29T05:20:27.458Z,7.27
2018-04-29T05:22:54.971Z,7.10
2018-04-29T05:25:22.496Z,7.50
2018-04-29T05:27:49.982Z,7.10
2018-04-29T05:30:17.784Z,8.13
2018-04-29T05:32:45.518Z,7.93
2018-04-29T05:35:13.146Z,7.40
2018-04-29T05:37:40.708Z,7.70
2018-04-29T05:40:08.192Z,7.77
2018-04-29T05:42:35.686Z,7.40
2018-04-29T05:45:03.189Z,8.03
2018-04-29T05:47:30.843Z,8.07
2018-04-29T05:49:58.332Z,7.90
2018-04-29T05:52:25.829Z,7.47
2018-04-29T05:54:53.339Z,8.47
2018-04-29T05:57:20.829Z,8.03
2018-04-29T05:59:48.328Z,7.10
2018-04-29T06:02:15.839Z,7.47
2018-04-29T06:04:43.364Z,7.57
2018-04-29T06:07:10.892Z,6.73
2018-04-29T06:09:39.272Z,6.87
2018-04-29T06:12:06.778Z,6.43
2018-04-29T06:14:34.442Z,5.63
2018-04-29T06:17:02.005Z,5.50
2018-04-29T06:19:29.534Z,5.50
2018-04-29T06:21:57.221Z,5.53
2018-04-29T06:24:24.784Z,5.10
2018-04-29T06:26:52.471Z,4.70
2018-04-29T06:29:20.526Z,5.33
2018-04-29T06:31:48.002Z,4.57
2018-04-29T06:34:15.487Z,4.70
2018-04-29T06:36:43.037Z,4.57
2018-04-29T06:39:12.352Z,9.80
2018-04-29T06:41:40.889Z,5.10
2018-04-29T06:44:08.650Z,4.63
2018-04-29T06:46:36.171Z,5.37
2018-04-29T06:49:03.742Z,4.40
2018-04-29T06:51:31.388Z,4.37
2018-04-29T06:53:58.947Z,4.27
2018-04-29T06:56:26.467Z,4.43
2018-04-29T06:58:54.095Z,4.80
2018-04-29T07:01:21.674Z,4.07
2018-04-29T07:03:49.296Z,4.20
2018-04-29T07:06:16.768Z,4.20
2018-04-29T07:08:44.260Z,4.33
2018-04-29T07:11:11.824Z,4.20
2018-04-29T07:13:40.365Z,4.30
2018-04-29T07:16:07.850Z,4.57
2018-04-29T07:18:35.360Z,4.20
2018-04-29T07:21:03.403Z,4.00
2018-04-29T07:23:30.925Z,4.53
2018-04-29T07:25:58.482Z,4.13
2018-04-29T07:28:26.391Z,4.50
2018-04-29T07:30:53.940Z,4.33
2018-04-29T07:33:21.454Z,4.40
2018-04-29T07:35:48.942Z,4.20
2018-04-29T07:38:16.614Z,3.90
2018-04-29T07:40:44.179Z,4.17
2018-04-29T07:43:11.694Z,3.67
2018-04-29T07:45:39.402Z,3.83
2018-04-29T07:48:06.962Z,4.03
2018-04-29T07:50:34.818Z,3.90
2018-04-29T07:53:02.302Z,3.67
2018-04-29T07:55:30.147Z,3.43
2018-04-29T07:57:57.666Z,3.60
2018-04-29T08:00:25.164Z,4.50
2018-04-29T08:02:52.680Z,3.97
2018-04-29T08:05:20.229Z,3.90
2018-04-29T08:07:47.731Z,4.50
2018-04-29T08:10:15.326Z,4.53
2018-04-29T08:12:42.843Z,3.10
2018-04-29T08:15:10.348Z,4.20
2018-04-29T08:17:37.826Z,4.07
2018-04-29T08:20:05.312Z,3.83
2018-04-29T08:22:32.842Z,3.87
2018-04-29T08:25:00.352Z,4.13
2018-04-29T08:27:27.922Z,3.93
2018-04-29T08:29:55.525Z,4.03
2018-04-29T08:32:23.017Z,3.50
2018-04-29T08:34:50.530Z,3.97
2018-04-29T08:37:18.025Z,3.23
2018-04-29T08:39:45.516Z,3.60
2018-04-29T08:42:13.039Z,3.63
2018-04-29T08:44:40.524Z,3.90
2018-04-29T08:47:08.000Z,3.40
2018-04-29T08:49:35.511Z,3.40
2018-04-29T08:52:03.019Z,3.13
2018-04-29T08:54:30.527Z,3.50
2018-04-29T08:56:58.033Z,3.93
2018-04-29T08:59:25.552Z,3.83
2018-04-29T09:01:53.053Z,3.80
2018-04-29T09:04:20.553Z,3.73
2018-04-29T09:06:48.047Z,3.57
2018-04-29T09:09:15.527Z,3.93
2018-04-29T09:11:43.334Z,4.20
2018-04-29T09:14:10.811Z,3.37
2018-04-29T09:16:38.443Z,3.97
2018-04-29T09:19:05.959Z,4.43
2018-04-29T09:21:33.745Z,4.00
2018-04-29T09:24:01.312Z,4.40
2018-04-29T09:26:28.802Z,5.00
2018-04-29T09:28:56.334Z,4.40
2018-04-29T09:31:23.827Z,4.97
2018-04-29T09:33:51.338Z,3.90
2018-04-29T09:36:18.814Z,4.00
2018-04-29T09:38:46.311Z,4.70
2018-04-29T09:41:13.850Z,4.53
2018-04-29T09:43:41.503Z,4.77
2018-04-29T09:46:08.963Z,4.00
2018-04-29T09:48:36.466Z,4.40
2018-04-29T09:51:03.936Z,4.30
2018-04-29T09:53:31.464Z,4.30
2018-04-29T09:55:58.977Z,4.43
2018-04-29T09:58:26.444Z,3.90
2018-04-29T10:00:57.839Z,4.30
2018-04-29T10:03:25.391Z,4.47
2018-04-29T10:05:52.933Z,5.40
2018-04-29T10:08:20.424Z,4.43
2018-04-29T10:10:47.908Z,4.40
2018-04-29T10:13:15.392Z,4.27
2018-04-29T10:15:42.917Z,4.60
2018-04-29T10:18:10.424Z,4.73
2018-04-29T10:20:37.938Z,4.27
2018-04-29T10:23:05.447Z,4.90
2018-04-29T10:25:32.928Z,4.10
2018-04-29T10:28:00.430Z,3.47
2018-04-29T10:30:27.914Z,4.00
2018-04-29T10:32:55.467Z,3.77
2018-04-29T10:35:22.897Z,4.27
2018-04-29T10:37:50.383Z,3.87
2018-04-29T10:40:17.860Z,4.17
2018-04-29T10:42:45.457Z,4.47
2018-04-29T10:45:12.933Z,4.60
2018-04-29T10:47:42.248Z,3.60
2018-04-29T10:50:09.751Z,4.70
2018-04-29T10:52:37.237Z,4.53
2018-04-29T10:55:04.716Z,4.13
2018-04-29T10:57:32.308Z,4.50
2018-04-29T10:59:59.852Z,4.37
2018-04-29T11:02:27.343Z,4.07
2018-04-29T11:04:54.954Z,4.67
2018-04-29T11:07:22.468Z,4.80
2018-04-29T11:09:49.952Z,5.00
2018-04-29T11:12:17.443Z,4.53
2018-04-29T11:14:44.955Z,4.27
2018-04-29T11:17:12.503Z,3.30
2018-04-29T11:19:39.987Z,3.00
2018-04-29T11:22:07.474Z,3.10
2018-04-29T11:24:35.005Z,3.13
2018-04-29T11:27:02.547Z,2.87
2018-04-29T11:29:29.980Z,2.73
2018-04-29T11:31:57.471Z,3.10
2018-04-29T11:34:24.969Z,2.83
2018-04-29T11:36:52.499Z,3.13
2018-04-29T11:39:20.017Z,2.83
2018-04-29T11:41:47.623Z,3.20
2018-04-29T11:44:15.168Z,3.13
2018-04-29T11:46:42.646Z,3.23
2018-04-29T11:49:10.141Z,3.50
2018-04-29T11:51:37.684Z,3.03
2018-04-29T11:54:05.174Z,3.73
2018-04-29T11:56:32.659Z,3.67
2018-04-29T11:59:00.150Z,3.33
2018-04-29T12:01:27.637Z,3.77
2018-04-29T12:03:55.274Z,3.87
2018-04-29T12:06:22.777Z,3.20
2018-04-29T12:08:50.321Z,3.57
2018-04-29T12:11:17.818Z,2.77
2018-04-29T12:13:45.505Z,2.67
2018-04-29T12:16:12.996Z,3.33
2018-04-29T12:18:40.489Z,3.13
2018-04-29T12:21:08.000Z,3.10
2018-04-29T12:23:35.474Z,3.03
2018-04-29T12:26:02.974Z,3.13
2018-04-29T12:28:30.652Z,3.17
2018-04-29T12:30:58.160Z,3.90
2018-04-29T12:33:25.647Z,3.30
2018-04-29T12:35:53.231Z,3.83
2018-04-29T12:38:20.810Z,3.33
2018-04-29T12:40:48.330Z,3.73
2018-04-29T12:43:15.833Z,4.00
2018-04-29T12:45:43.336Z,3.60
2018-04-29T12:48:10.820Z,4.30
2018-04-29T12:50:38.383Z,4.13
2018-04-29T12:53:05.886Z,4.47
2018-04-29T12:55:33.368Z,4.57
2018-04-29T12:58:00.886Z,3.70
2018-04-29T13:00:28.390Z,4.47
2018-04-29T13:02:55.899Z,4.73
2018-04-29T13:05:23.556Z,3.97
2018-04-29T13:07:51.063Z,3.37
2018-04-29T13:10:18.568Z,3.90
2018-04-29T13:12:46.049Z,4.30
2018-04-29T13:15:13.611Z,4.83
2018-04-29T13:17:41.153Z,4.30
2018-04-29T13:20:08.685Z,4.77
2018-04-29T13:22:36.161Z,4.57
2018-04-29T13:25:03.646Z,5.13
2018-04-29T13:27:31.131Z,4.97
2018-04-29T13:29:58.636Z,5.60
2018-04-29T13:32:27.117Z,4.83
2018-04-29T13:34:54.660Z,5.17
2018-04-29T13:37:22.202Z,4.80
2018-04-29T13:39:49.690Z,4.83
2018-04-29T13:42:17.232Z,5.33
2018-04-29T13:44:44.660Z,4.73
2018-04-29T13:47:12.187Z,4.27
2018-04-29T13:49:39.676Z,3.90
2018-04-29T13:52:07.196Z,3.73
2018-04-29T13:54:34.731Z,3.77
2018-04-29T13:57:02.245Z,3.00
2018-04-29T13:59:29.815Z,3.00
2018-04-29T14:01:57.391Z,3.37
2018-04-29T14:04:24.851Z,3.53
2018-04-29T14:06:52.349Z,3.13
2018-04-29T14:09:19.842Z,3.23
2018-04-29T14:11:47.357Z,3.47
2018-04-29T14:14:14.852Z,3.33
2018-04-29T14:16:42.359Z,3.47
2018-04-29T14:19:09.878Z,3.30
2018-04-29T14:21:37.398Z,3.40
2018-04-29T14:24:04.887Z,3.60
2018-04-29T14:26:32.361Z,3.57
2018-04-29T14:28:59.851Z,3.60
2018-04-29T14:31:27.332Z,4.07
2018-04-29T14:33:54.832Z,3.30
2018-04-29T14:36:22.324Z,3.50
2018-04-29T14:38:49.820Z,3.90
2018-04-29T14:41:17.322Z,3.23
2018-04-29T14:43:44.951Z,3.63
2018-04-29T14:46:12.730Z,3.67
2018-04-29T14:48:40.242Z,3.80
2018-04-29T14:51:07.929Z,3.63
2018-04-29T14:53:35.452Z,3.83
2018-04-29T14:56:02.950Z,2.97
2018-04-29T14:58:30.438Z,3.30
2018-04-29T15:00:57.954Z,3.83
2018-04-29T15:03:25.458Z,2.60
2018-04-29T15:05:52.971Z,3.70
2018-04-29T15:08:20.519Z,3.67
2018-04-29T15:10:48.186Z,3.93
2018-04-29T15:13:15.713Z,3.47
2018-04-29T15:15:43.207Z,3.40
2018-04-29T15:18:22.349Z,3.73
2018-04-29T15:20:49.878Z,4.30
2018-04-29T15:23:17.503Z,3.67
2018-04-29T15:25:45.234Z,3.97
2018-04-29T15:28:12.760Z,3.90
2018-04-29T15:30:40.263Z,4.03
2018-04-29T15:33:07.752Z,3.70
2018-04-29T15:35:35.388Z,3.77
2018-04-29T15:38:02.886Z,3.50
2018-04-29T15:40:30.653Z,3.80
2018-04-29T15:42:58.158Z,4.23
2018-04-29T15:45:25.766Z,4.07
2018-04-29T15:47:53.276Z,3.93
2018-04-29T15:50:21.085Z,4.00
2018-04-29T15:52:48.850Z,3.90
2018-04-29T15:55:16.416Z,3.40
2018-04-29T15:57:44.062Z,3.70
2018-04-29T16:00:11.587Z,3.93
2018-04-29T16:02:39.098Z,3.73
2018-04-29T16:05:06.585Z,3.27
2018-04-29T16:07:34.068Z,3.00
2018-04-29T16:10:01.578Z,3.20
2018-04-29T16:12:29.073Z,3.23
2018-04-29T16:14:56.573Z,3.20
2018-04-29T16:17:24.088Z,3.03
2018-04-29T16:19:51.568Z,3.27
2018-04-29T16:22:19.083Z,3.37
2018-04-29T16:24:46.593Z,3.23
2018-04-29T16:27:14.077Z,3.10
2018-04-29T16:29:41.737Z,3.70
2018-04-29T16:32:09.437Z,3.63
2018-04-29T16:34:36.934Z,3.30
2018-04-29T16:37:04.408Z,3.47
2018-04-29T16:39:31.952Z,3.53
2018-04-29T16:41:59.599Z,2.77
2018-04-29T16:44:27.089Z,3.10
2018-04-29T16:46:54.610Z,3.10
2018-04-29T16:49:22.144Z,3.30
2018-04-29T16:51:49.714Z,3.13
2018-04-29T16:54:17.215Z,3.50
2018-04-29T16:56:44.697Z,3.97
2018-04-29T16:59:12.184Z,3.20
2018-04-29T17:01:39.954Z,2.83
2018-04-29T17:04:07.586Z,3.20
2018-04-29T17:06:35.083Z,2.73
2018-04-29T17:09:02.636Z,3.00
2018-04-29T17:11:30.130Z,3.10
2018-04-29T17:13:57.652Z,3.13
2018-04-29T17:16:25.136Z,3.20
2018-04-29T17:18:52.624Z,3.00
2018-04-29T17:21:20.106Z,3.33
2018-04-29T17:23:47.600Z,3.17
2018-04-29T17:26:15.074Z,2.80
2018-04-29T17:28:42.550Z,3.00
2018-04-29T17:31:10.076Z,3.07
2018-04-29T17:33:37.544Z,3.03
2018-04-29T17:36:05.071Z,3.03
2018-04-29T17:38:32.547Z,3.10
2018-04-29T17:41:00.029Z,2.77
2018-04-29T17:43:27.524Z,3.00
2018-04-29T17:45:55.023Z,2.80
2018-04-29T17:48:22.506Z,2.80
2018-04-29T17:50:50.000Z,3.10
2018-04-29T17:53:17.529Z,3.10
2018-04-29T17:55:45.008Z,2.67
2018-04-29T17:58:12.515Z,2.83
2018-04-29T18:00:40.035Z,2.73
2018-04-29T18:03:07.511Z,2.67
2018-04-29T18:05:35.012Z,2.80
2018-04-29T18:08:02.548Z,2.60
2018-04-29T18:10:30.041Z,2.93
2018-04-29T18:12:57.606Z,2.90
2018-04-29T18:15:25.299Z,2.70
2018-04-29T18:17:52.807Z,2.90
2018-04-29T18:20:20.389Z,2.93
2018-04-29T18:22:47.889Z,3.00
2018-04-29T18:25:15.365Z,3.20
2018-04-29T18:27:42.889Z,3.33
2018-04-29T18:30:10.359Z,2.80
2018-04-29T18:32:37.872Z,3.20
2018-04-29T18:35:05.341Z,3.10
2018-04-29T18:37:32.858Z,2.87
2018-04-29T18:40:00.326Z,3.17
2018-04-29T18:42:28.430Z,3.00
2018-04-29T18:44:55.908Z,3.27
2018-04-29T18:47:23.419Z,3.30
2018-04-29T18:49:52.893Z,3.33
2018-04-29T18:52:20.415Z,3.10
2018-04-29T18:54:47.922Z,3.07
2018-04-29T18:57:15.430Z,3.37
2018-04-29T18:59:42.930Z,3.40
2018-04-29T19:02:10.436Z,3.23
2018-04-29T19:04:37.958Z,3.07
2018-04-29T19:07:05.507Z,2.50
2018-04-29T19:09:33.594Z,2.60
2018-04-29T19:12:01.163Z,2.50
2018-04-29T19:14:28.749Z,2.77
2018-04-29T19:16:56.329Z,2.53
2018-04-29T19:19:23.802Z,2.97
2018-04-29T19:21:51.510Z,2.70
2018-04-29T19:24:19.157Z,3.13
2018-04-29T19:26:47.625Z,2.67
2018-04-29T19:29:15.132Z,3.13
2018-04-29T19:31:42.728Z,3.27
2018-04-29T19:34:10.351Z,3.00
2018-04-29T19:36:38.125Z,3.27
2018-04-29T19:39:05.651Z,3.13
2018-04-29T19:41:37.382Z,3.00
2018-04-29T19:44:04.893Z,3.27
2018-04-29T19:46:32.417Z,2.73
2018-04-29T19:48:59.946Z,2.83
2018-04-29T19:51:27.476Z,3.33
2018-04-29T19:53:54.972Z,3.93
2018-04-29T19:56:22.489Z,2.80
2018-04-29T19:58:50.038Z,3.53
2018-04-29T20:01:17.546Z,3.30
2018-04-29T20:03:45.068Z,3.20
2018-04-29T20:06:12.781Z,3.03
2018-04-29T20:08:40.301Z,3.20
2018-04-29T20:11:07.851Z,3.10
2018-04-29T20:13:35.336Z,3.60
2018-04-29T20:16:02.842Z,3.77
2018-04-29T20:18:30.338Z,3.70
2018-04-29T20:20:57.913Z,3.90
2018-04-29T20:23:25.517Z,3.87
2018-04-29T20:25:53.030Z,3.87
2018-04-29T20:28:21.229Z,5.13
2018-04-29T20:30:48.907Z,4.40
2018-04-29T20:33:16.508Z,5.10
2018-04-29T20:35:44.010Z,4.20
2018-04-29T20:38:11.567Z,4.27
2018-04-29T20:40:39.165Z,4.27
2018-04-29T20:43:06.991Z,4.20
2018-04-29T20:48:14.689Z,4.67
2018-04-29T20:50:42.189Z,4.17
2018-04-29T20:53:09.674Z,4.13
2018-04-29T20:55:37.276Z,4.20
2018-04-29T20:58:04.794Z,5.17
2018-04-29T21:00:32.296Z,4.40
2018-04-29T21:02:59.892Z,4.40
2018-04-29T21:05:27.427Z,4.33
2018-04-29T21:07:54.947Z,4.07
2018-04-29T21:10:22.761Z,4.00
2018-04-29T21:12:50.278Z,4.00
2018-04-29T21:15:17.789Z,4.07
2018-04-29T21:17:45.553Z,4.00
2018-04-29T21:20:13.187Z,3.63
2018-04-29T21:22:40.736Z,4.30
2018-04-29T21:25:08.264Z,3.87
2018-04-29T21:27:35.788Z,3.73
2018-04-29T21:30:03.256Z,4.00
2018-04-29T21:32:31.035Z,3.90
2018-04-29T21:34:58.511Z,4.07
2018-04-29T21:37:26.021Z,4.80
2018-04-29T21:39:53.549Z,4.13
2018-04-29T21:42:21.068Z,3.73
2018-04-29T21:44:48.579Z,4.60
2018-04-29T21:47:16.089Z,4.03
2018-04-29T21:49:43.572Z,3.53
2018-04-29T21:52:11.053Z,3.93
2018-04-29T21:54:38.540Z,4.40
2018-04-29T21:57:06.033Z,4.23
2018-04-29T21:59:33.510Z,4.47
2018-04-29T22:02:01.011Z,4.20
2018-04-29T22:04:28.475Z,4.10
2018-04-29T22:06:56.003Z,4.50
2018-04-29T22:09:23.550Z,4.93
2018-04-29T22:11:51.041Z,4.27
2018-04-29T22:14:18.538Z,4.30
2018-04-29T22:16:46.007Z,4.60
2018-04-29T22:19:13.472Z,4.30
2018-04-29T22:21:40.948Z,4.43
2018-04-29T22:24:08.461Z,4.70
2018-04-29T22:26:35.964Z,4.27
2018-04-29T22:29:03.463Z,4.83
2018-04-29T22:31:30.956Z,4.80
2018-04-29T22:33:58.446Z,4.67
2018-04-29T22:36:25.916Z,4.37
2018-04-29T22:38:53.407Z,4.03
2018-04-29T22:41:20.905Z,3.87
2018-04-29T22:43:48.385Z,4.83
2018-04-29T22:46:15.889Z,4.33
2018-04-29T22:48:43.389Z,4.13
2018-04-29T22:51:10.923Z,4.77
2018-04-29T22:53:38.404Z,4.37
2018-04-29T22:56:05.886Z,4.17
2018-04-29T22:58:33.507Z,4.17
2018-04-29T23:01:00.972Z,4.33
2018-04-29T23:03:28.455Z,4.43
2018-04-29T23:05:55.949Z,4.07
2018-04-29T23:08:23.426Z,4.97
2018-04-29T23:10:50.920Z,4.60
2018-04-29T23:13:18.418Z,4.37
2018-04-29T23:15:45.900Z,4.77
2018-04-29T23:18:13.377Z,4.23
2018-04-29T23:20:40.869Z,5.40
2018-04-29T23:23:08.363Z,5.23
2018-04-29T23:25:35.867Z,5.20
2018-04-29T23:28:03.351Z,5.20
2018-04-29T23:30:30.839Z,5.27
2018-04-29T23:32:58.313Z,4.97
2018-04-29T23:35:25.844Z,5.00
2018-04-29T23:37:53.256Z,4.63
2018-04-29T23:40:21.064Z,5.60
2018-04-29T23:42:48.554Z,6.03
2018-04-29T23:45:16.042Z,4.73
2018-04-29T23:47:43.602Z,4.90
2018-04-29T23:50:11.133Z,5.30
2018-04-29T23:52:38.640Z,4.97
2018-04-29T23:55:06.135Z,5.63
2018-04-29T23:57:33.615Z,5.30
